createdAt,value
2022-12-23T00:00:25.576Z,14.75
2022-12-23T00:02:52.101Z,13.35
2022-12-23T00:05:18.654Z,19.42
2022-12-23T00:07:45.079Z,12.02
2022-12-23T00:10:12.179Z,16.75
2022-12-23T00:12:57.407Z,13.98
2022-12-23T00:15:23.840Z,15.38
2022-12-23T00:17:50.264Z,14.18
2022-12-23T00:20:16.685Z,9.23
2022-12-23T00:23:02.142Z,11.80
2022-12-23T00:25:40.597Z,9.20
2022-12-23T00:28:12.640Z,7.85
2022-12-23T00:30:53.028Z,8.57
2022-12-23T00:33:23.246Z,8.40
2022-12-23T00:35:50.353Z,7.25
2022-12-23T00:38:37.867Z,10.50
2022-12-23T00:41:24.606Z,7.85
2022-12-23T00:43:51.044Z,8.35
2022-12-23T00:46:17.905Z,10.65
2022-12-23T00:49:02.916Z,7.80
2022-12-23T00:51:29.331Z,9.38
2022-12-23T00:53:55.829Z,9.63
2022-12-23T00:56:22.254Z,9.77
2022-12-23T00:58:48.702Z,8.32
2022-12-23T01:01:33.989Z,5.60
2022-12-23T01:04:19.633Z,7.57
2022-12-23T01:06:46.060Z,7.53
2022-12-23T01:09:12.573Z,6.85
2022-12-23T01:11:39.011Z,8.70
2022-12-23T01:14:05.725Z,9.75
2022-12-23T01:16:32.180Z,5.65
2022-12-23T01:18:58.738Z,8.23
2022-12-23T01:21:25.160Z,8.63
2022-12-23T01:23:51.581Z,6.43
2022-12-23T01:26:18.012Z,6.28
2022-12-23T01:28:44.430Z,5.38
2022-12-23T01:31:10.845Z,4.97
2022-12-23T01:33:37.278Z,5.13
2022-12-23T01:36:06.670Z,7.40
2022-12-23T01:38:34.328Z,6.47
2022-12-23T01:41:00.772Z,8.95
2022-12-23T01:43:50.417Z,4.97
2022-12-23T01:46:16.956Z,7.55
2022-12-23T01:48:52.761Z,6.72
2022-12-23T01:51:25.784Z,6.65
2022-12-23T01:53:57.468Z,12.27
2022-12-23T01:56:34.001Z,8.40
2022-12-23T01:59:03.076Z,7.15
2022-12-23T02:02:05.655Z,8.13
2022-12-23T02:04:32.238Z,7.10
2022-12-23T02:07:17.199Z,12.13
2022-12-23T02:09:43.609Z,8.43
2022-12-23T02:12:38.531Z,7.70
2022-12-23T02:18:15.353Z,4.38
2022-12-23T02:21:18.642Z,8.50
2022-12-23T02:24:26.927Z,7.90
2022-12-23T02:27:05.281Z,4.68
2022-12-23T02:30:02.968Z,5.90
2022-12-23T02:32:45.268Z,7.70
2022-12-23T02:35:32.128Z,4.43
2022-12-23T02:38:23.704Z,6.93
2022-12-23T02:41:14.750Z,7.05
2022-12-23T02:43:50.167Z,5.63
2022-12-23T02:46:29.644Z,6.10
2022-12-23T02:49:12.774Z,4.18
2022-12-23T02:51:44.203Z,8.35
2022-12-23T02:54:14.508Z,3.38
2022-12-23T02:56:45.261Z,5.00
2022-12-23T02:59:18.758Z,3.15
2022-12-23T03:01:46.072Z,4.68
2022-12-23T03:04:12.611Z,3.88
2022-12-23T03:06:44.954Z,5.30
2022-12-23T03:09:23.398Z,4.00
2022-12-23T03:12:14.723Z,4.10
2022-12-23T03:15:06.970Z,4.28
2022-12-23T03:17:50.824Z,4.63
2022-12-23T03:20:42.304Z,3.35
2022-12-23T03:23:29.889Z,2.67
2022-12-23T03:26:11.459Z,2.28
2022-12-23T03:28:51.698Z,4.68
2022-12-23T03:31:25.311Z,3.95
2022-12-23T03:34:01.556Z,4.50
2022-12-23T03:36:41.868Z,5.35
2022-12-23T03:39:15.949Z,4.43
2022-12-23T03:41:56.813Z,2.08
2022-12-23T03:44:35.324Z,3.95
2022-12-23T03:47:09.144Z,4.05
2022-12-23T03:49:48.195Z,5.43
2022-12-23T03:52:24.103Z,3.35
2022-12-23T03:54:54.555Z,4.22
2022-12-23T03:57:28.661Z,2.92
2022-12-23T03:59:55.734Z,3.33
2022-12-23T04:02:32.737Z,2.15
2022-12-23T04:05:36.494Z,2.97
2022-12-23T04:08:14.563Z,3.55
2022-12-23T04:10:41.091Z,5.75
2022-12-23T04:13:08.260Z,4.97
2022-12-23T04:15:40.216Z,2.50
2022-12-23T04:18:07.353Z,2.45
2022-12-23T04:20:33.997Z,2.22
2022-12-23T04:23:00.605Z,2.42
2022-12-23T04:25:27.079Z,1.75
2022-12-23T04:27:53.536Z,1.77
2022-12-23T04:30:20.102Z,3.42
2022-12-23T04:32:46.597Z,3.13
2022-12-23T04:35:13.210Z,2.63
2022-12-23T04:37:39.677Z,1.90
2022-12-23T04:40:06.869Z,2.83
2022-12-23T04:42:33.344Z,3.13
2022-12-23T04:44:59.801Z,2.10
2022-12-23T04:47:26.683Z,2.05
2022-12-23T04:49:53.133Z,3.33
2022-12-23T04:52:19.582Z,2.10
2022-12-23T04:54:46.650Z,2.42
2022-12-23T04:57:13.649Z,2.42
2022-12-23T04:59:40.074Z,1.90
2022-12-23T05:02:07.910Z,2.70
2022-12-23T05:04:34.526Z,0.75
2022-12-23T05:07:00.992Z,2.40
2022-12-23T05:09:27.410Z,1.92
2022-12-23T05:11:54.388Z,2.22
2022-12-23T05:14:20.857Z,1.88
2022-12-23T05:16:47.415Z,2.30
2022-12-23T05:19:13.875Z,1.27
2022-12-23T05:21:40.331Z,1.13
2022-12-23T05:24:06.957Z,2.38
2022-12-23T05:26:33.570Z,1.30
2022-12-23T05:29:00.094Z,1.80
2022-12-23T05:31:26.597Z,2.38
2022-12-23T05:33:53.169Z,1.85
2022-12-23T05:36:19.734Z,1.10
2022-12-23T05:38:46.211Z,2.03
2022-12-23T05:41:12.640Z,1.15
2022-12-23T05:43:39.132Z,1.25
2022-12-23T05:46:05.624Z,2.20
2022-12-23T05:48:32.144Z,2.00
2022-12-23T05:50:58.721Z,2.58
2022-12-23T05:53:25.254Z,1.42
2022-12-23T05:55:51.772Z,1.10
2022-12-23T05:58:18.319Z,2.30
2022-12-23T06:00:44.782Z,2.00
2022-12-23T06:03:11.981Z,2.35
2022-12-23T06:05:39.801Z,1.92
2022-12-23T06:08:06.358Z,1.40
2022-12-23T06:10:32.841Z,1.88
2022-12-23T06:12:59.331Z,2.70
2022-12-23T06:15:25.780Z,2.00
2022-12-23T06:17:52.216Z,1.27
2022-12-23T06:20:20.894Z,4.05
2022-12-23T06:22:48.133Z,2.20
2022-12-23T06:25:15.092Z,1.65
2022-12-23T06:27:41.541Z,2.05
2022-12-23T06:30:08.665Z,0.98
2022-12-23T06:32:38.661Z,2.30
2022-12-23T06:35:06.644Z,0.90
2022-12-23T06:37:33.432Z,1.92
2022-12-23T06:39:59.870Z,1.40
2022-12-23T06:42:26.345Z,1.27
2022-12-23T06:44:52.787Z,2.33
2022-12-23T06:47:19.449Z,2.17
2022-12-23T06:49:46.124Z,1.88
2022-12-23T06:52:13.278Z,2.33
2022-12-23T06:54:39.901Z,1.25
2022-12-23T06:57:06.344Z,2.55
2022-12-23T06:59:32.775Z,1.75
2022-12-23T07:01:59.521Z,1.40
2022-12-23T07:04:26.116Z,1.63
2022-12-23T07:06:52.796Z,2.78
2022-12-23T07:09:19.206Z,3.28
2022-12-23T07:11:45.907Z,3.67
2022-12-23T07:14:12.342Z,1.63
2022-12-23T07:16:38.845Z,1.95
2022-12-23T07:19:05.362Z,3.13
2022-12-23T07:21:31.854Z,1.67
2022-12-23T07:23:58.333Z,1.95
2022-12-23T07:26:25.823Z,0.90
2022-12-23T07:28:52.272Z,2.25
2022-12-23T07:31:18.783Z,1.85
2022-12-23T07:33:45.340Z,2.10
2022-12-23T07:36:12.379Z,0.98
2022-12-23T07:38:38.908Z,0.80
2022-12-23T07:41:05.373Z,0.90
2022-12-23T07:43:31.938Z,1.90
2022-12-23T07:46:00.826Z,7.35
2022-12-23T07:48:28.044Z,2.63
2022-12-23T08:11:02.208Z,2.38
2022-12-23T08:13:28.759Z,1.65
2022-12-23T08:15:59.882Z,1.42
2022-12-23T08:18:27.367Z,1.92
2022-12-23T08:21:06.014Z,2.35
2022-12-23T08:23:33.435Z,2.05
2022-12-23T08:26:02.122Z,1.13
2022-12-23T08:28:29.419Z,2.95
2022-12-23T08:30:56.366Z,1.98
2022-12-23T08:33:22.904Z,2.85
2022-12-23T08:35:54.795Z,10.75
2022-12-23T08:38:21.349Z,9.82
2022-12-23T08:40:47.852Z,1.17
2022-12-23T08:43:14.654Z,3.42
2022-12-23T08:45:41.095Z,1.52
2022-12-23T08:48:07.713Z,1.58
2022-12-23T08:50:52.332Z,4.53
2022-12-23T08:53:18.787Z,0.43
2022-12-23T08:55:47.428Z,1.27
2022-12-23T08:58:15.496Z,2.30
2022-12-23T09:00:42.048Z,2.22
2022-12-23T09:03:08.732Z,1.98
2022-12-23T09:05:41.039Z,2.00
2022-12-23T09:08:08.594Z,2.78
2022-12-23T09:10:41.262Z,1.10
2022-12-23T09:13:07.769Z,1.63
2022-12-23T09:15:38.689Z,2.17
2022-12-23T09:18:05.964Z,2.75
2022-12-23T09:20:32.398Z,1.95
2022-12-23T09:23:00.917Z,2.30
2022-12-23T09:25:27.361Z,1.80
2022-12-23T09:27:53.813Z,2.28
2022-12-23T09:30:20.416Z,2.38
2022-12-23T09:32:46.864Z,4.88
2022-12-23T09:35:13.283Z,3.63
2022-12-23T09:37:39.722Z,3.40
2022-12-23T09:40:07.169Z,2.35
2022-12-23T09:42:52.418Z,2.78
2022-12-23T09:45:40.702Z,2.78
2022-12-23T09:48:13.907Z,1.77
2022-12-23T09:50:42.059Z,1.88
2022-12-23T09:53:19.678Z,2.25
2022-12-23T09:56:11.489Z,1.88
2022-12-23T09:58:53.614Z,3.95
2022-12-23T10:01:32.225Z,2.10
2022-12-23T10:04:22.305Z,1.90
2022-12-23T10:07:03.376Z,3.03
2022-12-23T10:09:38.036Z,2.10
2022-12-23T10:12:39.791Z,1.98
2022-12-23T10:15:19.829Z,2.20
2022-12-23T10:17:48.584Z,1.95
2022-12-23T10:20:20.937Z,2.65
2022-12-23T10:22:47.589Z,1.67
2022-12-23T10:25:28.543Z,2.40
2022-12-23T10:27:55.095Z,2.97
2022-12-23T10:33:21.960Z,2.03
2022-12-23T10:36:05.346Z,2.00
2022-12-23T10:38:49.785Z,4.18
2022-12-23T10:41:22.013Z,2.40
2022-12-23T10:44:27.948Z,3.13
2022-12-23T10:47:31.353Z,4.00
2022-12-23T10:50:12.570Z,2.83
2022-12-23T10:52:43.329Z,3.85
2022-12-23T10:55:38.406Z,2.90
2022-12-23T10:58:14.532Z,2.47
2022-12-23T11:00:44.889Z,3.70
2022-12-23T11:03:23.987Z,2.78
2022-12-23T11:05:52.928Z,3.83
2022-12-23T11:08:24.342Z,3.67
2022-12-23T11:10:50.763Z,4.65
2022-12-23T11:13:44.839Z,3.88
2022-12-23T11:16:23.099Z,4.78
2022-12-23T11:18:55.658Z,3.33
2022-12-23T11:21:22.112Z,7.30
2022-12-23T11:24:06.529Z,5.47
2022-12-23T11:26:33.109Z,3.60
2022-12-23T11:29:11.704Z,4.28
2022-12-23T11:31:38.531Z,4.47
2022-12-23T11:34:14.460Z,3.83
2022-12-23T11:36:41.362Z,4.70
2022-12-23T11:39:22.867Z,3.35
2022-12-23T11:41:52.369Z,3.50
2022-12-23T11:44:21.968Z,3.10
2022-12-23T11:46:48.775Z,2.67
2022-12-23T11:49:21.240Z,3.20
2022-12-23T11:52:07.777Z,2.75
2022-12-23T11:54:34.487Z,13.15
2022-12-23T11:57:03.937Z,11.80
2022-12-23T11:59:39.948Z,7.90
2022-12-23T12:02:19.484Z,8.18
2022-12-23T12:04:58.246Z,6.70
2022-12-23T12:07:26.144Z,5.63
2022-12-23T12:09:56.567Z,6.72
2022-12-23T12:12:23.288Z,4.45
2022-12-23T12:14:52.427Z,4.20
2022-12-23T12:17:39.368Z,7.47
2022-12-23T12:20:31.770Z,4.85
2022-12-23T12:23:08.889Z,3.22
2022-12-23T12:25:42.054Z,2.78
2022-12-23T12:28:18.149Z,3.25
2022-12-23T12:30:56.446Z,1.77
2022-12-23T12:33:38.352Z,2.60
2022-12-23T12:36:22.832Z,2.40
2022-12-23T12:38:52.604Z,1.73
2022-12-23T12:41:28.099Z,3.10
2022-12-23T12:44:19.058Z,2.50
2022-12-23T12:46:53.656Z,6.50
2022-12-23T12:49:43.208Z,2.17
2022-12-23T12:52:20.630Z,1.90
2022-12-23T12:54:59.381Z,2.90
2022-12-23T12:57:26.268Z,2.63
2022-12-23T13:00:05.199Z,7.85
2022-12-23T13:03:09.060Z,10.13
2022-12-23T13:05:59.689Z,3.10
2022-12-23T13:08:49.941Z,3.05
2022-12-23T13:11:28.400Z,2.75
2022-12-23T13:14:12.454Z,2.25
2022-12-23T13:17:05.631Z,1.70
2022-12-23T13:19:47.331Z,1.90
2022-12-23T13:22:21.380Z,2.05
2022-12-23T13:25:22.635Z,2.63
2022-12-23T13:28:07.887Z,2.13
2022-12-23T13:30:43.492Z,2.55
2022-12-23T13:33:24.198Z,3.13
2022-12-23T13:36:15.095Z,2.33
2022-12-23T13:38:56.824Z,3.10
2022-12-23T13:41:34.388Z,4.55
2022-12-23T13:44:06.475Z,4.68
2022-12-23T13:46:50.482Z,4.65
2022-12-23T13:52:07.066Z,3.65
2022-12-23T13:54:55.915Z,4.05
2022-12-23T13:57:43.595Z,4.55
2022-12-23T14:00:16.199Z,4.80
2022-12-23T14:02:51.920Z,4.35
2022-12-23T14:05:30.601Z,4.00
2022-12-23T14:08:00.186Z,4.05
2022-12-23T14:10:27.442Z,6.70
2022-12-23T14:13:01.630Z,3.58
2022-12-23T14:15:31.387Z,4.38
2022-12-23T14:18:25.298Z,3.65
2022-12-23T14:21:05.961Z,3.35
2022-12-23T14:24:07.951Z,2.85
2022-12-23T14:27:11.264Z,3.65
2022-12-23T14:29:52.549Z,7.03
2022-12-23T14:32:26.067Z,4.00
2022-12-23T14:35:26.104Z,3.22
2022-12-23T14:38:22.505Z,3.88
2022-12-23T14:41:20.666Z,3.80
2022-12-23T14:43:47.033Z,2.90
2022-12-23T14:46:35.511Z,5.28
2022-12-23T14:49:29.729Z,3.05
2022-12-23T14:51:50.946Z,3.70
2022-12-23T14:54:36.351Z,4.30
2022-12-23T14:57:17.437Z,4.13
2022-12-23T15:00:00.403Z,4.45
2022-12-23T15:02:35.819Z,5.03
2022-12-23T15:05:02.748Z,7.53
2022-12-23T15:07:37.856Z,6.47
2022-12-23T15:10:08.591Z,4.25
2022-12-23T15:12:38.623Z,4.25
2022-12-23T15:15:17.924Z,4.10
2022-12-23T15:17:44.809Z,4.30
2022-12-23T15:20:12.295Z,7.18
2022-12-23T15:22:39.847Z,4.50
2022-12-23T15:25:20.154Z,4.03
2022-12-23T15:27:46.757Z,4.10
2022-12-23T15:30:14.062Z,5.72
2022-12-23T15:32:46.608Z,4.30
2022-12-23T15:35:19.274Z,2.85
2022-12-23T15:37:48.861Z,3.13
2022-12-23T15:40:31.884Z,2.83
2022-12-23T15:42:58.481Z,2.08
2022-12-23T15:45:32.954Z,2.90
2022-12-23T15:48:03.148Z,2.05
2022-12-23T15:50:30.708Z,2.70
2022-12-23T15:53:05.409Z,2.33
2022-12-23T15:55:34.136Z,3.60
2022-12-23T15:58:01.847Z,2.42
2022-12-23T16:00:34.109Z,3.28
2022-12-23T16:03:02.787Z,3.35
2022-12-23T16:05:32.134Z,3.03
2022-12-23T16:08:28.259Z,2.63
2022-12-23T16:11:03.399Z,2.80
2022-12-23T16:13:29.868Z,3.75
2022-12-23T16:16:35.063Z,2.53
2022-12-23T16:19:01.590Z,3.58
2022-12-23T16:21:32.575Z,3.53
2022-12-23T16:24:00.298Z,4.75
2022-12-23T16:26:27.085Z,4.20
2022-12-23T16:28:57.732Z,3.40
2022-12-23T16:31:24.866Z,3.10
2022-12-23T16:33:55.475Z,4.22
2022-12-23T16:36:25.244Z,2.97
2022-12-23T16:39:00.271Z,3.28
2022-12-23T16:41:26.832Z,5.03
2022-12-23T16:43:53.330Z,3.40
2022-12-23T16:46:22.586Z,4.15
2022-12-23T16:49:00.608Z,5.45
2022-12-23T16:51:28.628Z,3.30
2022-12-23T16:53:57.234Z,3.90
2022-12-23T16:56:29.785Z,3.08
2022-12-23T16:58:56.254Z,2.72
2022-12-23T17:01:31.996Z,4.57
2022-12-23T17:03:58.497Z,3.28
2022-12-23T17:06:25.793Z,4.00
2022-12-23T17:08:53.272Z,5.15
2022-12-23T17:11:28.994Z,4.25
2022-12-23T17:14:01.389Z,3.25
2022-12-23T17:16:30.569Z,4.65
2022-12-23T17:18:57.089Z,5.57
2022-12-23T17:21:28.627Z,6.07
2022-12-23T17:26:24.632Z,3.72
2022-12-23T17:28:51.076Z,3.50
2022-12-23T17:31:26.325Z,3.92
2022-12-23T17:33:54.171Z,9.55
2022-12-23T17:36:20.639Z,8.20
2022-12-23T17:38:47.111Z,5.32
2022-12-23T17:41:22.391Z,5.30
2022-12-23T17:43:48.837Z,5.32
2022-12-23T17:46:15.521Z,4.38
2022-12-23T17:48:42.791Z,3.60
2022-12-23T17:51:14.123Z,5.43
2022-12-23T17:53:40.631Z,4.47
2022-12-23T17:56:15.902Z,4.38
2022-12-23T18:01:35.792Z,4.22
2022-12-23T18:04:05.060Z,5.57
2022-12-23T18:06:31.755Z,4.70
2022-12-23T18:08:58.329Z,6.35
2022-12-23T18:11:34.957Z,6.18
2022-12-23T18:14:02.991Z,4.18
2022-12-23T18:16:29.616Z,4.60
2022-12-23T18:18:56.369Z,5.68
2022-12-23T18:21:25.348Z,5.72
2022-12-23T18:23:57.423Z,6.40
2022-12-23T18:26:23.887Z,6.78
2022-12-23T18:28:51.312Z,6.20
2022-12-23T18:31:20.719Z,3.85
2022-12-23T18:33:47.275Z,3.60
2022-12-23T18:36:27.489Z,4.13
2022-12-23T18:39:10.847Z,5.13
2022-12-23T18:41:45.671Z,4.43
2022-12-23T18:47:15.975Z,4.05
2022-12-23T18:49:45.354Z,4.00
2022-12-23T18:52:15.202Z,4.07
2022-12-23T18:54:43.280Z,3.92
2022-12-23T18:57:10.610Z,3.40
2022-12-23T18:59:38.955Z,3.13
2022-12-23T19:02:07.146Z,3.35
2022-12-23T19:04:34.052Z,2.90
2022-12-23T19:07:00.549Z,3.85
2022-12-23T19:09:27.038Z,3.45
2022-12-23T19:11:54.472Z,4.25
2022-12-23T19:14:21.116Z,2.53
2022-12-23T19:33:42.150Z,4.70
2022-12-23T19:36:17.406Z,5.13
2022-12-23T19:38:48.174Z,5.57
2022-12-23T19:41:24.425Z,5.13
2022-12-23T19:43:55.471Z,7.10
2022-12-23T19:46:24.651Z,7.63
2022-12-23T19:49:01.153Z,10.15
2022-12-23T19:51:29.003Z,10.40
2022-12-23T19:53:56.897Z,8.52
2022-12-23T19:56:27.429Z,10.48
2022-12-23T19:58:53.950Z,7.93
2022-12-23T20:01:23.938Z,10.75
2022-12-23T20:03:56.856Z,9.65
2022-12-23T20:06:26.706Z,10.15
2022-12-23T20:08:59.712Z,8.88
2022-12-23T20:11:32.309Z,8.88
2022-12-23T20:14:00.255Z,8.93
2022-12-23T20:16:28.004Z,9.85
2022-12-23T20:18:55.273Z,10.70
2022-12-23T20:21:22.067Z,8.05
2022-12-23T20:23:49.073Z,10.85
2022-12-23T20:26:17.712Z,10.88
2022-12-23T20:28:44.451Z,9.25
2022-12-23T20:31:18.976Z,10.65
2022-12-23T20:33:47.129Z,9.70
2022-12-23T20:36:15.663Z,13.55
2022-12-23T20:38:43.829Z,10.32
2022-12-23T20:41:13.086Z,13.05
2022-12-23T20:43:41.215Z,14.40
2022-12-23T20:46:10.724Z,11.90
2022-12-23T20:48:37.334Z,14.45
2022-12-23T20:51:10.190Z,12.82
2022-12-23T20:53:36.611Z,11.95
2022-12-23T20:56:05.153Z,12.23
2022-12-23T20:58:49.925Z,12.85
2022-12-23T21:01:16.579Z,14.65
2022-12-23T21:03:43.154Z,11.45
2022-12-23T21:06:09.682Z,11.35
2022-12-23T21:08:37.928Z,10.05
2022-12-23T21:11:07.125Z,13.82
2022-12-23T21:13:35.383Z,18.40
2022-12-23T21:16:04.361Z,11.23
2022-12-23T21:18:31.436Z,13.18
2022-12-23T21:21:02.687Z,10.80
2022-12-23T21:23:29.744Z,11.07
2022-12-23T21:26:23.008Z,8.77
2022-12-23T21:28:51.992Z,11.70
2022-12-23T21:31:21.504Z,10.07
2022-12-23T21:33:49.466Z,10.80
2022-12-23T21:36:20.219Z,13.10
2022-12-23T21:38:48.396Z,11.13
2022-12-23T21:41:17.687Z,11.10
2022-12-23T21:43:44.161Z,11.23
2022-12-23T21:46:13.080Z,14.10
2022-12-23T21:48:39.856Z,14.35
2022-12-23T21:51:18.819Z,13.30
2022-12-23T21:53:47.362Z,11.77
2022-12-23T21:56:19.168Z,11.25
2022-12-23T21:58:45.932Z,12.02
2022-12-23T22:01:20.076Z,12.18
2022-12-23T22:03:50.514Z,14.38
2022-12-23T22:06:20.074Z,15.48
2022-12-23T22:08:47.023Z,14.90
2022-12-23T22:11:19.223Z,17.25
2022-12-23T22:13:46.245Z,15.48
2022-12-23T22:16:15.520Z,13.63
2022-12-23T22:18:42.539Z,9.80
2022-12-23T22:21:14.751Z,10.55
2022-12-23T22:23:41.774Z,13.60
2022-12-23T22:26:11.962Z,12.65
2022-12-23T22:28:39.481Z,9.52
2022-12-23T22:31:08.172Z,10.30
2022-12-23T22:33:34.846Z,13.27
2022-12-23T22:36:01.347Z,16.73
2022-12-23T22:38:28.148Z,14.15
2022-12-23T22:40:54.696Z,14.10
2022-12-23T22:43:21.168Z,12.75
2022-12-23T22:45:54.642Z,9.25
2022-12-23T22:48:21.213Z,6.55
2022-12-23T22:50:47.621Z,5.93
2022-12-23T22:53:15.243Z,2.63
2022-12-23T22:55:41.734Z,3.03
2022-12-23T22:58:08.241Z,4.25
2022-12-23T23:00:34.645Z,1.67
2022-12-23T23:03:01.076Z,2.13
2022-12-23T23:05:27.549Z,1.60
2022-12-23T23:07:54.412Z,1.30
2022-12-23T23:10:20.837Z,2.72
2022-12-23T23:12:47.459Z,2.05
2022-12-23T23:15:13.895Z,2.45
2022-12-23T23:17:40.359Z,2.15
2022-12-23T23:20:07.692Z,2.33
2022-12-23T23:22:34.132Z,2.53
2022-12-23T23:25:00.564Z,3.22
2022-12-23T23:27:26.997Z,2.50
2022-12-23T23:29:53.452Z,2.20
2022-12-23T23:32:19.949Z,1.88
2022-12-23T23:34:46.423Z,2.47
2022-12-23T23:37:14.089Z,2.60
2022-12-23T23:39:40.529Z,1.88
2022-12-23T23:42:07.089Z,3.22
2022-12-23T23:44:33.501Z,4.65
2022-12-23T23:46:59.907Z,2.35
2022-12-23T23:49:26.460Z,3.53
2022-12-23T23:51:53.420Z,3.28
2022-12-23T23:54:19.891Z,2.47
2022-12-23T23:56:46.322Z,4.25
2022-12-23T23:59:12.783Z,3.08
